Apple Creek, OH

6:16 PM EDT on September 02, 2015 (GMT -0400)
Kidron | | Change Station
CLOSE
Current Station
Personal Weather Station
Location: Apple Creek, OH
Elevation: 1220 ft
Nearby Weather Stations

Elev 1220 ft 40.73 °N, 81.75 °W | Updated 7 minutes ago

Clear
Clear
84.2 °F
Feels Like 88 °F
N
4.2
Wind Variable Wind from SW

Today
High -- | Low -- °F
--% Chance of Precip.
Yesterday
High -- | Low -- °F
Precip. -- in
6:54 AM 7:58 PM
Waning Gibbous, 77% visible
Pressure 29.99 in
Visibility 10.0 miles
Clouds Few 5000 ft
Heat Index 88 °F
Dew Point 69 °F
Humidity 61%
Rainfall 0.00 in
Snow Depth Not available.
UV 2 out of 12
Pollen 10.40 out of 12
Air Quality Not available.
Flu Activity Not available.
METAR KBJJ 022156Z AUTO 30005KT 10SM FEW050 29/21 A3001 RMK AO2 SLP153 T02940206 TSNO
Pressure 29.99 in
Visibility 10.0 miles
Clouds Few 5000 ft
Heat Index 88 °F
Dew Point 69 °F
Humidity 61%
Rainfall 0.00 in
Snow Depth Not available.
UV 2 out of 12
Pollen 10.40 out of 12
Air Quality Not available.
Flu Activity Not available.
METAR KBJJ 022156Z AUTO 30005KT 10SM FEW050 29/21 A3001 RMK AO2 SLP153 T02940206 TSNO

10-Day Weather Forecast

×

Almanac

Astronomy

Sep. 02, 2015 Rise Set
Actual Time
Civil Twilight
Nautical Twilight
Astronomical Twilight
Moon
Length of Visible Light
Length of Day
Tomorrow will be .
, % of the Moon is Illuminated

Today's Extremes

State Highs State Lows

Community

WunderPhotos

Upload Photos

1,851,823 photos uploaded!

WunderBlogs® & News

Nearby

Air Quality

  Air Quality AQ Index Pollutant
Not available.

Snow Depth

Station Depth Elevation

Earthquake Activity

City Distance Mag. Time & Date
Minimum magnitude displayed is 2.5.

Coastal Water Temperatures

Place Temperature

Stations

Nearby Weather Stations

Station Location Temp. Windchill Dew Point Humidity Wind Precip. Elev Updated Type